sensor_id;sensor_type;location;lat;lon;timestamp;P1;durP1;ratioP1;P2;durP2;ratioP2
4112;SDS011;2070;51.042;7.056;2022-08-18T00:01:17;20.27;;;16.87;;
4112;SDS011;2070;51.042;7.056;2022-08-18T00:03:43;25.77;;;17.80;;
4112;SDS011;2070;51.042;7.056;2022-08-18T00:06:08;24.97;;;18.30;;
4112;SDS011;2070;51.042;7.056;2022-08-18T00:08:33;23.17;;;17.27;;
4112;SDS011;2070;51.042;7.056;2022-08-18T00:10:59;23.07;;;15.70;;
4112;SDS011;2070;51.042;7.056;2022-08-18T00:13:24;25.43;;;17.30;;
4112;SDS011;2070;51.042;7.056;2022-08-18T00:15:49;24.33;;;15.97;;
4112;SDS011;2070;51.042;7.056;2022-08-18T00:18:15;24.70;;;17.70;;
4112;SDS011;2070;51.042;7.056;2022-08-18T00:20:40;24.93;;;16.73;;
4112;SDS011;2070;51.042;7.056;2022-08-18T00:23:05;25.73;;;16.50;;
4112;SDS011;2070;51.042;7.056;2022-08-18T00:25:30;21.00;;;15.20;;
4112;SDS011;2070;51.042;7.056;2022-08-18T00:27:56;22.43;;;16.97;;
4112;SDS011;2070;51.042;7.056;2022-08-18T00:30:21;26.20;;;18.67;;
4112;SDS011;2070;51.042;7.056;2022-08-18T00:32:48;23.07;;;16.27;;
4112;SDS011;2070;51.042;7.056;2022-08-18T00:35:18;25.17;;;18.90;;
4112;SDS011;2070;51.042;7.056;2022-08-18T00:37:45;23.23;;;18.03;;
4112;SDS011;2070;51.042;7.056;2022-08-18T00:40:12;26.33;;;18.50;;
4112;SDS011;2070;51.042;7.056;2022-08-18T00:42:43;24.13;;;17.73;;
4112;SDS011;2070;51.042;7.056;2022-08-18T00:45:09;27.20;;;17.60;;
4112;SDS011;2070;51.042;7.056;2022-08-18T00:47:36;23.43;;;18.70;;
4112;SDS011;2070;51.042;7.056;2022-08-18T00:50:01;31.93;;;19.83;;
4112;SDS011;2070;51.042;7.056;2022-08-18T00:52:27;24.37;;;19.00;;
4112;SDS011;2070;51.042;7.056;2022-08-18T00:54:52;23.60;;;18.60;;
4112;SDS011;2070;51.042;7.056;2022-08-18T00:57:19;26.80;;;19.07;;
4112;SDS011;2070;51.042;7.056;2022-08-18T00:59:50;27.83;;;19.83;;
4112;SDS011;2070;51.042;7.056;2022-08-18T01:02:19;27.53;;;18.40;;
4112;SDS011;2070;51.042;7.056;2022-08-18T01:04:50;24.47;;;17.77;;
4112;SDS011;2070;51.042;7.056;2022-08-18T01:07:32;23.73;;;17.53;;
4112;SDS011;2070;51.042;7.056;2022-08-18T01:09:59;24.83;;;18.47;;
4112;SDS011;2070;51.042;7.056;2022-08-18T01:12:25;26.60;;;19.37;;
4112;SDS011;2070;51.042;7.056;2022-08-18T01:14:50;30.00;;;21.20;;
4112;SDS011;2070;51.042;7.056;2022-08-18T01:17:16;23.70;;;18.00;;
4112;SDS011;2070;51.042;7.056;2022-08-18T01:19:59;24.70;;;18.87;;
4112;SDS011;2070;51.042;7.056;2022-08-18T01:22:49;27.67;;;18.93;;
4112;SDS011;2070;51.042;7.056;2022-08-18T01:25:16;27.33;;;18.20;;
4112;SDS011;2070;51.042;7.056;2022-08-18T01:28:01;29.60;;;19.40;;
4112;SDS011;2070;51.042;7.056;2022-08-18T01:30:27;32.23;;;20.77;;
4112;SDS011;2070;51.042;7.056;2022-08-18T01:32:53;29.90;;;19.40;;
4112;SDS011;2070;51.042;7.056;2022-08-18T01:35:18;28.50;;;19.00;;
4112;SDS011;2070;51.042;7.056;2022-08-18T01:37:45;30.00;;;19.77;;
4112;SDS011;2070;51.042;7.056;2022-08-18T01:40:11;27.30;;;19.50;;
4112;SDS011;2070;51.042;7.056;2022-08-18T01:42:37;30.90;;;21.23;;
4112;SDS011;2070;51.042;7.056;2022-08-18T01:45:03;28.23;;;19.90;;
4112;SDS011;2070;51.042;7.056;2022-08-18T01:47:29;27.20;;;20.03;;
4112;SDS011;2070;51.042;7.056;2022-08-18T01:49:56;25.03;;;18.60;;
4112;SDS011;2070;51.042;7.056;2022-08-18T01:52:22;29.60;;;19.87;;
4112;SDS011;2070;51.042;7.056;2022-08-18T01:54:48;25.37;;;18.10;;
4112;SDS011;2070;51.042;7.056;2022-08-18T01:57:14;33.77;;;20.43;;
4112;SDS011;2070;51.042;7.056;2022-08-18T01:59:42;25.87;;;17.53;;
4112;SDS011;2070;51.042;7.056;2022-08-18T02:02:08;25.10;;;18.10;;
4112;SDS011;2070;51.042;7.056;2022-08-18T02:04:34;28.90;;;20.47;;
4112;SDS011;2070;51.042;7.056;2022-08-18T02:07:00;32.47;;;20.00;;
4112;SDS011;2070;51.042;7.056;2022-08-18T02:09:26;25.33;;;17.90;;
4112;SDS011;2070;51.042;7.056;2022-08-18T02:11:52;26.23;;;20.10;;
4112;SDS011;2070;51.042;7.056;2022-08-18T02:14:17;30.20;;;19.43;;
4112;SDS011;2070;51.042;7.056;2022-08-18T02:16:42;28.50;;;19.67;;
4112;SDS011;2070;51.042;7.056;2022-08-18T02:19:07;31.10;;;21.23;;
4112;SDS011;2070;51.042;7.056;2022-08-18T02:21:33;33.47;;;22.93;;
4112;SDS011;2070;51.042;7.056;2022-08-18T02:23:58;38.50;;;25.67;;
4112;SDS011;2070;51.042;7.056;2022-08-18T02:26:23;31.90;;;22.93;;
4112;SDS011;2070;51.042;7.056;2022-08-18T02:28:49;36.00;;;22.40;;
4112;SDS011;2070;51.042;7.056;2022-08-18T02:31:15;36.57;;;24.60;;
4112;SDS011;2070;51.042;7.056;2022-08-18T02:33:41;41.30;;;25.40;;
4112;SDS011;2070;51.042;7.056;2022-08-18T02:36:07;38.23;;;25.97;;
4112;SDS011;2070;51.042;7.056;2022-08-18T02:38:32;60.47;;;26.93;;
4112;SDS011;2070;51.042;7.056;2022-08-18T02:41:00;44.67;;;26.07;;
4112;SDS011;2070;51.042;7.056;2022-08-18T02:43:26;45.30;;;29.00;;
4112;SDS011;2070;51.042;7.056;2022-08-18T02:45:52;48.73;;;29.30;;
4112;SDS011;2070;51.042;7.056;2022-08-18T02:48:18;53.87;;;32.27;;
4112;SDS011;2070;51.042;7.056;2022-08-18T02:51:04;58.50;;;31.80;;
4112;SDS011;2070;51.042;7.056;2022-08-18T02:53:30;45.87;;;28.60;;
4112;SDS011;2070;51.042;7.056;2022-08-18T02:56:03;43.97;;;27.40;;
4112;SDS011;2070;51.042;7.056;2022-08-18T02:58:31;46.57;;;27.37;;
4112;SDS011;2070;51.042;7.056;2022-08-18T03:00:56;41.40;;;25.30;;
4112;SDS011;2070;51.042;7.056;2022-08-18T03:03:22;34.83;;;23.67;;
4112;SDS011;2070;51.042;7.056;2022-08-18T03:05:47;34.60;;;22.83;;
4112;SDS011;2070;51.042;7.056;2022-08-18T03:08:12;27.97;;;19.87;;
4112;SDS011;2070;51.042;7.056;2022-08-18T03:10:37;28.30;;;20.70;;
4112;SDS011;2070;51.042;7.056;2022-08-18T03:13:03;31.33;;;20.97;;
4112;SDS011;2070;51.042;7.056;2022-08-18T03:15:28;29.13;;;20.60;;
4112;SDS011;2070;51.042;7.056;2022-08-18T03:17:53;32.33;;;21.10;;
4112;SDS011;2070;51.042;7.056;2022-08-18T03:20:19;31.80;;;21.40;;
4112;SDS011;2070;51.042;7.056;2022-08-18T03:22:44;36.30;;;22.30;;
4112;SDS011;2070;51.042;7.056;2022-08-18T03:25:09;33.50;;;21.77;;
4112;SDS011;2070;51.042;7.056;2022-08-18T03:27:34;37.80;;;22.00;;
4112;SDS011;2070;51.042;7.056;2022-08-18T03:29:59;31.47;;;21.50;;
4112;SDS011;2070;51.042;7.056;2022-08-18T03:32:26;30.43;;;21.00;;
4112;SDS011;2070;51.042;7.056;2022-08-18T03:34:51;34.43;;;23.33;;
4112;SDS011;2070;51.042;7.056;2022-08-18T03:37:17;27.63;;;21.03;;
4112;SDS011;2070;51.042;7.056;2022-08-18T03:39:42;30.17;;;19.77;;
4112;SDS011;2070;51.042;7.056;2022-08-18T03:42:07;34.30;;;22.20;;
4112;SDS011;2070;51.042;7.056;2022-08-18T03:44:33;48.07;;;26.80;;
4112;SDS011;2070;51.042;7.056;2022-08-18T03:47:01;54.47;;;30.63;;
4112;SDS011;2070;51.042;7.056;2022-08-18T03:49:27;67.00;;;35.47;;
4112;SDS011;2070;51.042;7.056;2022-08-18T03:51:53;102.77;;;41.93;;
4112;SDS011;2070;51.042;7.056;2022-08-18T03:54:18;90.70;;;39.73;;
4112;SDS011;2070;51.042;7.056;2022-08-18T03:56:44;95.87;;;44.83;;
4112;SDS011;2070;51.042;7.056;2022-08-18T03:59:13;108.60;;;44.97;;
4112;SDS011;2070;51.042;7.056;2022-08-18T04:01:40;115.77;;;48.20;;
4112;SDS011;2070;51.042;7.056;2022-08-18T04:04:07;109.77;;;46.13;;
4112;SDS011;2070;51.042;7.056;2022-08-18T04:06:34;114.30;;;46.93;;
4112;SDS011;2070;51.042;7.056;2022-08-18T04:09:02;111.50;;;46.37;;
4112;SDS011;2070;51.042;7.056;2022-08-18T04:11:30;113.13;;;45.83;;
4112;SDS011;2070;51.042;7.056;2022-08-18T04:13:55;99.90;;;44.20;;
4112;SDS011;2070;51.042;7.056;2022-08-18T04:16:26;88.30;;;41.70;;
4112;SDS011;2070;51.042;7.056;2022-08-18T04:18:52;96.67;;;44.40;;
4112;SDS011;2070;51.042;7.056;2022-08-18T04:21:17;83.83;;;38.53;;
4112;SDS011;2070;51.042;7.056;2022-08-18T04:23:42;106.90;;;40.80;;
4112;SDS011;2070;51.042;7.056;2022-08-18T04:26:08;81.03;;;37.93;;
4112;SDS011;2070;51.042;7.056;2022-08-18T04:28:34;78.00;;;37.20;;
4112;SDS011;2070;51.042;7.056;2022-08-18T04:31:04;90.10;;;36.50;;
4112;SDS011;2070;51.042;7.056;2022-08-18T04:33:30;82.33;;;36.57;;
4112;SDS011;2070;51.042;7.056;2022-08-18T04:35:55;75.53;;;35.00;;
4112;SDS011;2070;51.042;7.056;2022-08-18T04:38:21;93.27;;;37.23;;
4112;SDS011;2070;51.042;7.056;2022-08-18T04:40:47;87.13;;;35.10;;
4112;SDS011;2070;51.042;7.056;2022-08-18T04:43:12;80.77;;;36.73;;
4112;SDS011;2070;51.042;7.056;2022-08-18T04:45:48;77.80;;;37.47;;
4112;SDS011;2070;51.042;7.056;2022-08-18T04:48:15;92.77;;;37.60;;
4112;SDS011;2070;51.042;7.056;2022-08-18T04:50:40;79.13;;;37.57;;
4112;SDS011;2070;51.042;7.056;2022-08-18T04:53:05;77.80;;;36.00;;
4112;SDS011;2070;51.042;7.056;2022-08-18T04:55:50;92.37;;;39.17;;
4112;SDS011;2070;51.042;7.056;2022-08-18T04:58:22;97.50;;;41.37;;
4112;SDS011;2070;51.042;7.056;2022-08-18T05:00:55;107.27;;;41.57;;
4112;SDS011;2070;51.042;7.056;2022-08-18T05:03:21;115.77;;;42.37;;
4112;SDS011;2070;51.042;7.056;2022-08-18T05:05:54;126.80;;;45.93;;
4112;SDS011;2070;51.042;7.056;2022-08-18T05:08:19;104.40;;;44.07;;
4112;SDS011;2070;51.042;7.056;2022-08-18T05:10:46;140.73;;;45.17;;
4112;SDS011;2070;51.042;7.056;2022-08-18T05:13:12;127.33;;;43.63;;
4112;SDS011;2070;51.042;7.056;2022-08-18T05:15:40;136.90;;;45.90;;
4112;SDS011;2070;51.042;7.056;2022-08-18T05:18:07;117.57;;;43.93;;
4112;SDS011;2070;51.042;7.056;2022-08-18T05:20:32;107.27;;;40.63;;
4112;SDS011;2070;51.042;7.056;2022-08-18T05:22:58;134.17;;;45.27;;
4112;SDS011;2070;51.042;7.056;2022-08-18T05:25:23;138.40;;;46.37;;
4112;SDS011;2070;51.042;7.056;2022-08-18T05:27:48;126.40;;;45.73;;
4112;SDS011;2070;51.042;7.056;2022-08-18T05:30:13;108.67;;;41.70;;
4112;SDS011;2070;51.042;7.056;2022-08-18T05:32:42;137.47;;;47.43;;
4112;SDS011;2070;51.042;7.056;2022-08-18T05:35:10;156.50;;;48.67;;
4112;SDS011;2070;51.042;7.056;2022-08-18T05:40:07;142.87;;;44.83;;
4112;SDS011;2070;51.042;7.056;2022-08-18T05:42:36;145.17;;;49.43;;
4112;SDS011;2070;51.042;7.056;2022-08-18T05:45:02;147.00;;;47.80;;
4112;SDS011;2070;51.042;7.056;2022-08-18T05:47:31;135.43;;;45.50;;
4112;SDS011;2070;51.042;7.056;2022-08-18T05:49:57;147.67;;;49.93;;
4112;SDS011;2070;51.042;7.056;2022-08-18T05:54:55;146.07;;;49.30;;
4112;SDS011;2070;51.042;7.056;2022-08-18T05:57:43;141.27;;;45.80;;
4112;SDS011;2070;51.042;7.056;2022-08-18T06:00:10;136.10;;;44.87;;
4112;SDS011;2070;51.042;7.056;2022-08-18T06:02:37;156.63;;;49.17;;
4112;SDS011;2070;51.042;7.056;2022-08-18T06:05:07;122.90;;;45.70;;
4112;SDS011;2070;51.042;7.056;2022-08-18T06:07:42;129.67;;;43.83;;
4112;SDS011;2070;51.042;7.056;2022-08-18T06:10:09;137.27;;;45.37;;
4112;SDS011;2070;51.042;7.056;2022-08-18T06:15:05;119.60;;;42.33;;
4112;SDS011;2070;51.042;7.056;2022-08-18T06:22:52;118.17;;;42.30;;
4112;SDS011;2070;51.042;7.056;2022-08-18T06:28:12;122.60;;;44.40;;
4112;SDS011;2070;51.042;7.056;2022-08-18T06:35:49;116.83;;;43.73;;
4112;SDS011;2070;51.042;7.056;2022-08-18T06:41:13;106.97;;;41.03;;
4112;SDS011;2070;51.042;7.056;2022-08-18T06:43:42;111.97;;;43.13;;
4112;SDS011;2070;51.042;7.056;2022-08-18T06:46:11;123.97;;;42.87;;
4112;SDS011;2070;51.042;7.056;2022-08-18T06:48:41;110.70;;;41.03;;
4112;SDS011;2070;51.042;7.056;2022-08-18T06:51:08;118.40;;;43.67;;
4112;SDS011;2070;51.042;7.056;2022-08-18T06:53:53;111.50;;;41.70;;
4112;SDS011;2070;51.042;7.056;2022-08-18T06:56:24;96.30;;;39.87;;
4112;SDS011;2070;51.042;7.056;2022-08-18T06:58:49;104.80;;;39.77;;
4112;SDS011;2070;51.042;7.056;2022-08-18T07:01:19;109.73;;;41.27;;
4112;SDS011;2070;51.042;7.056;2022-08-18T07:03:48;108.07;;;39.20;;
4112;SDS011;2070;51.042;7.056;2022-08-18T07:08:45;109.20;;;42.00;;
4112;SDS011;2070;51.042;7.056;2022-08-18T07:11:12;101.93;;;38.37;;
4112;SDS011;2070;51.042;7.056;2022-08-18T07:13:39;112.37;;;42.37;;
4112;SDS011;2070;51.042;7.056;2022-08-18T07:16:15;100.10;;;40.80;;
4112;SDS011;2070;51.042;7.056;2022-08-18T07:18:41;103.43;;;40.80;;
4112;SDS011;2070;51.042;7.056;2022-08-18T07:21:07;101.90;;;41.00;;
4112;SDS011;2070;51.042;7.056;2022-08-18T07:23:34;82.03;;;33.90;;
4112;SDS011;2070;51.042;7.056;2022-08-18T07:26:10;112.63;;;40.13;;
4112;SDS011;2070;51.042;7.056;2022-08-18T07:28:46;99.47;;;36.93;;
4112;SDS011;2070;51.042;7.056;2022-08-18T07:33:36;82.50;;;34.10;;
4112;SDS011;2070;51.042;7.056;2022-08-18T07:36:03;86.80;;;35.70;;
4112;SDS011;2070;51.042;7.056;2022-08-18T07:41:01;77.87;;;34.77;;
4112;SDS011;2070;51.042;7.056;2022-08-18T07:43:33;73.43;;;34.70;;
4112;SDS011;2070;51.042;7.056;2022-08-18T07:46:11;73.30;;;33.90;;
4112;SDS011;2070;51.042;7.056;2022-08-18T07:48:37;82.27;;;33.70;;
4112;SDS011;2070;51.042;7.056;2022-08-18T07:56:04;85.97;;;36.40;;
4112;SDS011;2070;51.042;7.056;2022-08-18T07:58:33;78.33;;;35.40;;
4112;SDS011;2070;51.042;7.056;2022-08-18T08:01:06;74.93;;;34.63;;
4112;SDS011;2070;51.042;7.056;2022-08-18T08:03:43;78.80;;;34.47;;
4112;SDS011;2070;51.042;7.056;2022-08-18T08:06:15;83.77;;;36.47;;
4112;SDS011;2070;51.042;7.056;2022-08-18T08:08:43;93.43;;;39.10;;
4112;SDS011;2070;51.042;7.056;2022-08-18T08:11:19;82.73;;;35.90;;
4112;SDS011;2070;51.042;7.056;2022-08-18T08:16:50;87.83;;;35.63;;
4112;SDS011;2070;51.042;7.056;2022-08-18T08:22:26;85.30;;;36.23;;
4112;SDS011;2070;51.042;7.056;2022-08-18T08:32:02;68.37;;;34.07;;
4112;SDS011;2070;51.042;7.056;2022-08-18T08:34:37;68.80;;;30.00;;
4112;SDS011;2070;51.042;7.056;2022-08-18T08:37:04;68.70;;;30.80;;
4112;SDS011;2070;51.042;7.056;2022-08-18T08:39:35;54.73;;;30.40;;
4112;SDS011;2070;51.042;7.056;2022-08-18T08:42:11;64.47;;;32.80;;
4112;SDS011;2070;51.042;7.056;2022-08-18T08:47:16;51.97;;;28.53;;
4112;SDS011;2070;51.042;7.056;2022-08-18T08:49:50;58.00;;;31.00;;
4112;SDS011;2070;51.042;7.056;2022-08-18T08:54:52;49.53;;;27.77;;
4112;SDS011;2070;51.042;7.056;2022-08-18T08:57:18;59.10;;;31.30;;
4112;SDS011;2070;51.042;7.056;2022-08-18T08:59:46;65.03;;;33.50;;
4112;SDS011;2070;51.042;7.056;2022-08-18T09:04:40;70.80;;;33.07;;
4112;SDS011;2070;51.042;7.056;2022-08-18T09:09:48;45.87;;;25.13;;
4112;SDS011;2070;51.042;7.056;2022-08-18T09:12:23;53.50;;;28.40;;
4112;SDS011;2070;51.042;7.056;2022-08-18T09:23:13;51.70;;;26.77;;
4112;SDS011;2070;51.042;7.056;2022-08-18T09:28:08;41.13;;;24.33;;
4112;SDS011;2070;51.042;7.056;2022-08-18T09:35:53;40.10;;;24.70;;
4112;SDS011;2070;51.042;7.056;2022-08-18T09:38:23;40.50;;;23.80;;
4112;SDS011;2070;51.042;7.056;2022-08-18T09:41:19;41.27;;;22.63;;
4112;SDS011;2070;51.042;7.056;2022-08-18T09:51:47;41.80;;;24.60;;
4112;SDS011;2070;51.042;7.056;2022-08-18T09:54:13;42.37;;;22.40;;
4112;SDS011;2070;51.042;7.056;2022-08-18T09:59:30;39.47;;;23.27;;
4112;SDS011;2070;51.042;7.056;2022-08-18T10:01:59;41.47;;;24.57;;
4112;SDS011;2070;51.042;7.056;2022-08-18T10:04:26;33.80;;;20.43;;
4112;SDS011;2070;51.042;7.056;2022-08-18T10:06:52;33.73;;;21.07;;
4112;SDS011;2070;51.042;7.056;2022-08-18T10:09:51;39.53;;;20.97;;
4112;SDS011;2070;51.042;7.056;2022-08-18T10:22:51;39.10;;;21.97;;
4112;SDS011;2070;51.042;7.056;2022-08-18T10:25:30;36.80;;;20.10;;
4112;SDS011;2070;51.042;7.056;2022-08-18T10:27:56;35.90;;;18.93;;
4112;SDS011;2070;51.042;7.056;2022-08-18T10:32:52;30.97;;;19.23;;
4112;SDS011;2070;51.042;7.056;2022-08-18T10:37:59;26.30;;;15.23;;
4112;SDS011;2070;51.042;7.056;2022-08-18T10:40:25;25.00;;;16.17;;
4112;SDS011;2070;51.042;7.056;2022-08-18T10:45:54;27.77;;;16.83;;
4112;SDS011;2070;51.042;7.056;2022-08-18T10:48:22;32.30;;;18.03;;
4112;SDS011;2070;51.042;7.056;2022-08-18T10:50:51;30.13;;;17.57;;
4112;SDS011;2070;51.042;7.056;2022-08-18T10:58:23;27.93;;;15.90;;
4112;SDS011;2070;51.042;7.056;2022-08-18T11:03:20;33.50;;;15.13;;
4112;SDS011;2070;51.042;7.056;2022-08-18T11:05:59;26.20;;;16.47;;
4112;SDS011;2070;51.042;7.056;2022-08-18T11:08:24;30.60;;;17.10;;
4112;SDS011;2070;51.042;7.056;2022-08-18T11:10:49;32.50;;;16.27;;
4112;SDS011;2070;51.042;7.056;2022-08-18T11:13:29;27.07;;;16.60;;
4112;SDS011;2070;51.042;7.056;2022-08-18T11:16:24;25.00;;;15.10;;
4112;SDS011;2070;51.042;7.056;2022-08-18T11:18:53;33.80;;;17.20;;
4112;SDS011;2070;51.042;7.056;2022-08-18T11:21:40;32.50;;;16.00;;
4112;SDS011;2070;51.042;7.056;2022-08-18T11:24:12;27.97;;;16.90;;
4112;SDS011;2070;51.042;7.056;2022-08-18T11:26:42;25.87;;;18.03;;
4112;SDS011;2070;51.042;7.056;2022-08-18T11:31:41;29.93;;;16.47;;
4112;SDS011;2070;51.042;7.056;2022-08-18T11:34:11;28.60;;;17.37;;
4112;SDS011;2070;51.042;7.056;2022-08-18T11:36:37;27.47;;;17.50;;
4112;SDS011;2070;51.042;7.056;2022-08-18T11:39:02;22.13;;;14.47;;
4112;SDS011;2070;51.042;7.056;2022-08-18T11:41:31;32.83;;;17.00;;
4112;SDS011;2070;51.042;7.056;2022-08-18T11:43:57;23.43;;;15.90;;
4112;SDS011;2070;51.042;7.056;2022-08-18T11:46:28;26.37;;;15.73;;
4112;SDS011;2070;51.042;7.056;2022-08-18T11:48:54;22.23;;;15.70;;
4112;SDS011;2070;51.042;7.056;2022-08-18T11:51:23;30.50;;;14.83;;
4112;SDS011;2070;51.042;7.056;2022-08-18T11:53:57;25.20;;;15.50;;
4112;SDS011;2070;51.042;7.056;2022-08-18T11:56:24;28.33;;;16.87;;
4112;SDS011;2070;51.042;7.056;2022-08-18T11:58:55;23.43;;;15.03;;
4112;SDS011;2070;51.042;7.056;2022-08-18T12:09:15;24.43;;;15.80;;
4112;SDS011;2070;51.042;7.056;2022-08-18T12:12:04;23.30;;;13.97;;
4112;SDS011;2070;51.042;7.056;2022-08-18T12:14:29;36.87;;;15.97;;
4112;SDS011;2070;51.042;7.056;2022-08-18T12:16:55;25.60;;;16.20;;
4112;SDS011;2070;51.042;7.056;2022-08-18T12:19:21;25.30;;;16.90;;
4112;SDS011;2070;51.042;7.056;2022-08-18T12:24:21;25.80;;;15.53;;
4112;SDS011;2070;51.042;7.056;2022-08-18T12:26:47;28.60;;;16.63;;
4112;SDS011;2070;51.042;7.056;2022-08-18T12:29:13;24.27;;;16.47;;
4112;SDS011;2070;51.042;7.056;2022-08-18T12:31:40;30.50;;;16.93;;
4112;SDS011;2070;51.042;7.056;2022-08-18T12:34:05;21.60;;;14.27;;
4112;SDS011;2070;51.042;7.056;2022-08-18T12:36:31;24.20;;;13.70;;
4112;SDS011;2070;51.042;7.056;2022-08-18T12:38:56;28.13;;;15.43;;
4112;SDS011;2070;51.042;7.056;2022-08-18T12:41:22;26.63;;;14.47;;
4112;SDS011;2070;51.042;7.056;2022-08-18T12:43:47;24.20;;;13.50;;
4112;SDS011;2070;51.042;7.056;2022-08-18T12:46:12;26.27;;;16.00;;
4112;SDS011;2070;51.042;7.056;2022-08-18T12:48:38;25.40;;;13.80;;
4112;SDS011;2070;51.042;7.056;2022-08-18T12:51:03;20.53;;;13.90;;
4112;SDS011;2070;51.042;7.056;2022-08-18T12:53:29;36.67;;;16.57;;
4112;SDS011;2070;51.042;7.056;2022-08-18T12:55:54;27.60;;;16.63;;
4112;SDS011;2070;51.042;7.056;2022-08-18T12:58:19;26.77;;;15.10;;
4112;SDS011;2070;51.042;7.056;2022-08-18T13:00:44;25.13;;;14.37;;
4112;SDS011;2070;51.042;7.056;2022-08-18T13:03:12;26.60;;;15.70;;
4112;SDS011;2070;51.042;7.056;2022-08-18T13:05:37;21.20;;;14.87;;
4112;SDS011;2070;51.042;7.056;2022-08-18T13:08:03;22.43;;;13.13;;
4112;SDS011;2070;51.042;7.056;2022-08-18T13:10:29;20.97;;;15.07;;
4112;SDS011;2070;51.042;7.056;2022-08-18T13:12:54;24.93;;;17.00;;
4112;SDS011;2070;51.042;7.056;2022-08-18T13:15:19;23.33;;;13.70;;
4112;SDS011;2070;51.042;7.056;2022-08-18T13:17:44;28.67;;;14.27;;
4112;SDS011;2070;51.042;7.056;2022-08-18T13:20:12;23.30;;;14.47;;
4112;SDS011;2070;51.042;7.056;2022-08-18T13:22:38;23.53;;;16.40;;
4112;SDS011;2070;51.042;7.056;2022-08-18T13:25:05;23.33;;;13.57;;
4112;SDS011;2070;51.042;7.056;2022-08-18T13:27:31;20.40;;;14.27;;
4112;SDS011;2070;51.042;7.056;2022-08-18T13:29:56;28.60;;;14.63;;
4112;SDS011;2070;51.042;7.056;2022-08-18T13:32:22;21.97;;;14.17;;
4112;SDS011;2070;51.042;7.056;2022-08-18T13:34:49;14.63;;;12.60;;
4112;SDS011;2070;51.042;7.056;2022-08-18T13:37:15;18.57;;;12.40;;
4112;SDS011;2070;51.042;7.056;2022-08-18T13:39:40;20.00;;;12.20;;
4112;SDS011;2070;51.042;7.056;2022-08-18T13:42:05;17.10;;;11.70;;
4112;SDS011;2070;51.042;7.056;2022-08-18T13:44:30;19.67;;;10.93;;
4112;SDS011;2070;51.042;7.056;2022-08-18T13:46:56;18.17;;;11.00;;
4112;SDS011;2070;51.042;7.056;2022-08-18T13:49:22;18.67;;;13.50;;
4112;SDS011;2070;51.042;7.056;2022-08-18T13:51:48;16.93;;;11.63;;
4112;SDS011;2070;51.042;7.056;2022-08-18T13:54:19;18.10;;;11.33;;
4112;SDS011;2070;51.042;7.056;2022-08-18T13:56:44;17.87;;;11.20;;
4112;SDS011;2070;51.042;7.056;2022-08-18T13:59:10;21.33;;;12.43;;
4112;SDS011;2070;51.042;7.056;2022-08-18T14:01:36;15.17;;;11.60;;
4112;SDS011;2070;51.042;7.056;2022-08-18T14:04:02;13.00;;;9.50;;
4112;SDS011;2070;51.042;7.056;2022-08-18T14:06:27;16.37;;;8.73;;
4112;SDS011;2070;51.042;7.056;2022-08-18T14:08:52;17.03;;;9.33;;
4112;SDS011;2070;51.042;7.056;2022-08-18T14:11:17;8.57;;;7.67;;
4112;SDS011;2070;51.042;7.056;2022-08-18T14:13:43;12.20;;;8.97;;
4112;SDS011;2070;51.042;7.056;2022-08-18T14:16:09;12.40;;;9.57;;
4112;SDS011;2070;51.042;7.056;2022-08-18T14:18:35;13.83;;;8.87;;
4112;SDS011;2070;51.042;7.056;2022-08-18T14:21:00;10.67;;;7.47;;
4112;SDS011;2070;51.042;7.056;2022-08-18T14:23:44;15.20;;;10.10;;
4112;SDS011;2070;51.042;7.056;2022-08-18T14:26:28;11.70;;;7.97;;
4112;SDS011;2070;51.042;7.056;2022-08-18T14:29:12;14.03;;;9.30;;
4112;SDS011;2070;51.042;7.056;2022-08-18T14:31:38;16.23;;;10.97;;
4112;SDS011;2070;51.042;7.056;2022-08-18T14:34:03;13.87;;;9.53;;
4112;SDS011;2070;51.042;7.056;2022-08-18T14:36:28;31.50;;;11.40;;
4112;SDS011;2070;51.042;7.056;2022-08-18T14:38:53;13.13;;;9.80;;
4112;SDS011;2070;51.042;7.056;2022-08-18T14:41:19;14.47;;;9.30;;
4112;SDS011;2070;51.042;7.056;2022-08-18T14:43:44;17.00;;;10.20;;
4112;SDS011;2070;51.042;7.056;2022-08-18T14:46:10;23.03;;;9.33;;
4112;SDS011;2070;51.042;7.056;2022-08-18T14:48:36;17.60;;;9.80;;
4112;SDS011;2070;51.042;7.056;2022-08-18T14:51:02;15.30;;;10.80;;
4112;SDS011;2070;51.042;7.056;2022-08-18T14:53:29;12.40;;;9.90;;
4112;SDS011;2070;51.042;7.056;2022-08-18T14:55:54;14.33;;;11.20;;
4112;SDS011;2070;51.042;7.056;2022-08-18T14:58:21;21.67;;;10.47;;
4112;SDS011;2070;51.042;7.056;2022-08-18T15:00:51;14.27;;;8.57;;
4112;SDS011;2070;51.042;7.056;2022-08-18T15:03:17;13.00;;;9.60;;
4112;SDS011;2070;51.042;7.056;2022-08-18T15:05:42;16.10;;;9.83;;
4112;SDS011;2070;51.042;7.056;2022-08-18T15:08:08;14.23;;;10.80;;
4112;SDS011;2070;51.042;7.056;2022-08-18T15:10:33;15.53;;;11.03;;
4112;SDS011;2070;51.042;7.056;2022-08-18T15:12:58;12.20;;;10.57;;
4112;SDS011;2070;51.042;7.056;2022-08-18T15:15:27;17.30;;;12.00;;
4112;SDS011;2070;51.042;7.056;2022-08-18T15:17:52;18.70;;;10.87;;
4112;SDS011;2070;51.042;7.056;2022-08-18T15:20:18;16.67;;;13.13;;
4112;SDS011;2070;51.042;7.056;2022-08-18T15:22:44;15.33;;;12.23;;
4112;SDS011;2070;51.042;7.056;2022-08-18T15:25:28;14.17;;;10.57;;
4112;SDS011;2070;51.042;7.056;2022-08-18T15:28:06;18.73;;;11.70;;
4112;SDS011;2070;51.042;7.056;2022-08-18T15:30:32;18.87;;;12.33;;
4112;SDS011;2070;51.042;7.056;2022-08-18T15:32:57;16.80;;;12.97;;
4112;SDS011;2070;51.042;7.056;2022-08-18T15:35:24;21.63;;;11.90;;
4112;SDS011;2070;51.042;7.056;2022-08-18T15:37:50;19.80;;;11.47;;
4112;SDS011;2070;51.042;7.056;2022-08-18T15:40:18;15.07;;;11.23;;
4112;SDS011;2070;51.042;7.056;2022-08-18T15:42:48;13.70;;;10.60;;
4112;SDS011;2070;51.042;7.056;2022-08-18T15:45:14;12.50;;;9.47;;
4112;SDS011;2070;51.042;7.056;2022-08-18T15:47:40;19.87;;;10.13;;
4112;SDS011;2070;51.042;7.056;2022-08-18T15:50:06;19.17;;;10.07;;
4112;SDS011;2070;51.042;7.056;2022-08-18T15:52:32;15.13;;;9.90;;
4112;SDS011;2070;51.042;7.056;2022-08-18T15:54:59;15.33;;;10.93;;
4112;SDS011;2070;51.042;7.056;2022-08-18T15:57:24;12.97;;;10.50;;
4112;SDS011;2070;51.042;7.056;2022-08-18T15:59:50;11.43;;;9.20;;
4112;SDS011;2070;51.042;7.056;2022-08-18T16:02:15;9.70;;;8.63;;
4112;SDS011;2070;51.042;7.056;2022-08-18T16:04:40;15.00;;;9.40;;
4112;SDS011;2070;51.042;7.056;2022-08-18T16:07:06;13.27;;;10.20;;
4112;SDS011;2070;51.042;7.056;2022-08-18T16:09:31;14.63;;;9.87;;
4112;SDS011;2070;51.042;7.056;2022-08-18T16:11:56;11.93;;;9.20;;
4112;SDS011;2070;51.042;7.056;2022-08-18T16:14:21;15.70;;;10.60;;
4112;SDS011;2070;51.042;7.056;2022-08-18T16:16:47;10.90;;;9.20;;
4112;SDS011;2070;51.042;7.056;2022-08-18T16:19:12;14.93;;;9.93;;
4112;SDS011;2070;51.042;7.056;2022-08-18T16:21:38;12.93;;;9.90;;
4112;SDS011;2070;51.042;7.056;2022-08-18T16:24:04;14.47;;;9.40;;
4112;SDS011;2070;51.042;7.056;2022-08-18T16:26:29;23.20;;;8.90;;
4112;SDS011;2070;51.042;7.056;2022-08-18T16:28:54;13.13;;;10.77;;
4112;SDS011;2070;51.042;7.056;2022-08-18T16:31:20;12.00;;;8.90;;
4112;SDS011;2070;51.042;7.056;2022-08-18T16:33:50;14.97;;;10.87;;
4112;SDS011;2070;51.042;7.056;2022-08-18T16:36:16;19.20;;;11.20;;
4112;SDS011;2070;51.042;7.056;2022-08-18T16:38:42;14.00;;;10.73;;
4112;SDS011;2070;51.042;7.056;2022-08-18T16:41:09;15.97;;;11.00;;
4112;SDS011;2070;51.042;7.056;2022-08-18T16:43:34;15.20;;;10.97;;
4112;SDS011;2070;51.042;7.056;2022-08-18T16:46:00;14.27;;;10.70;;
4112;SDS011;2070;51.042;7.056;2022-08-18T16:48:27;21.90;;;11.13;;
4112;SDS011;2070;51.042;7.056;2022-08-18T16:50:52;14.23;;;10.63;;
4112;SDS011;2070;51.042;7.056;2022-08-18T16:53:17;23.60;;;10.90;;
4112;SDS011;2070;51.042;7.056;2022-08-18T16:55:43;13.53;;;10.70;;
4112;SDS011;2070;51.042;7.056;2022-08-18T16:58:08;11.67;;;9.57;;